createdAt,value
2018-03-08T00:00:28.674Z,0.90
2018-03-08T00:02:56.242Z,0.90
2018-03-08T00:05:24.760Z,1.00
2018-03-08T00:07:52.384Z,1.20
2018-03-08T00:10:19.943Z,1.50
2018-03-08T00:12:47.530Z,1.10
2018-03-08T00:15:15.885Z,1.17
2018-03-08T00:17:44.282Z,1.13
2018-03-08T00:20:11.882Z,0.73
2018-03-08T00:22:39.459Z,0.97
2018-03-08T00:25:07.060Z,1.13
2018-03-08T00:27:34.643Z,1.00
2018-03-08T00:30:02.491Z,0.77
2018-03-08T00:32:30.293Z,1.03
2018-03-08T00:34:58.082Z,1.17
2018-03-08T00:37:25.654Z,1.20
2018-03-08T00:39:53.328Z,1.10
2018-03-08T00:42:21.637Z,1.40
2018-03-08T00:44:50.740Z,2.00
2018-03-08T00:47:21.128Z,0.90
2018-03-08T00:49:48.722Z,1.00
2018-03-08T00:52:16.311Z,1.10
2018-03-08T00:54:44.639Z,1.00
2018-03-08T00:57:12.222Z,1.40
2018-03-08T00:59:39.795Z,1.20
2018-03-08T01:02:07.395Z,1.13
2018-03-08T01:04:35.794Z,1.20
2018-03-08T01:07:03.387Z,1.20
2018-03-08T01:09:30.977Z,1.13
2018-03-08T01:12:00.086Z,1.27
2018-03-08T01:14:27.686Z,1.10
2018-03-08T01:16:55.256Z,1.00
2018-03-08T01:19:22.862Z,0.83
2018-03-08T01:21:50.466Z,1.00
2018-03-08T01:24:18.023Z,0.80
2018-03-08T01:26:45.621Z,1.13
2018-03-08T01:29:13.187Z,1.23
2018-03-08T01:31:40.774Z,1.10
2018-03-08T01:34:08.367Z,0.97
2018-03-08T01:36:36.722Z,1.00
2018-03-08T01:39:04.340Z,0.80
2018-03-08T01:41:31.948Z,1.07
2018-03-08T01:44:01.063Z,1.43
2018-03-08T01:46:28.623Z,0.70
2018-03-08T01:48:57.704Z,1.00
2018-03-08T01:51:25.294Z,1.03
2018-03-08T01:53:52.861Z,1.00
2018-03-08T01:56:20.463Z,1.73
2018-03-08T01:58:48.059Z,0.70
2018-03-08T02:01:15.676Z,0.70
2018-03-08T02:03:43.230Z,0.80
2018-03-08T02:06:10.862Z,0.93
2018-03-08T02:08:39.207Z,0.73
2018-03-08T02:11:06.818Z,0.70
2018-03-08T02:13:34.375Z,0.60
2018-03-08T02:16:02.739Z,0.70
2018-03-08T02:18:30.458Z,0.70
2018-03-08T02:20:58.039Z,1.37
2018-03-08T02:23:25.649Z,0.70
2018-03-08T02:25:53.980Z,0.77
2018-03-08T02:28:21.535Z,1.00
2018-03-08T02:30:49.150Z,1.00
2018-03-08T02:33:17.490Z,1.03
2018-03-08T02:35:45.074Z,0.60
2018-03-08T02:38:12.627Z,1.43
2018-03-08T02:40:40.212Z,1.00
2018-03-08T02:43:08.563Z,0.90
2018-03-08T02:45:36.201Z,1.17
2018-03-08T02:48:03.867Z,1.23
2018-03-08T02:50:31.442Z,1.20
2018-03-08T02:52:59.002Z,0.90
2018-03-08T02:55:26.595Z,0.70
2018-03-08T02:57:54.181Z,0.77
2018-03-08T03:00:22.546Z,0.80
2018-03-08T03:02:50.119Z,1.13
2018-03-08T03:05:18.464Z,0.53
2018-03-08T03:07:46.075Z,1.00
2018-03-08T03:10:14.398Z,0.50
2018-03-08T03:12:41.990Z,0.70
2018-03-08T03:15:09.575Z,0.60
2018-03-08T03:17:37.931Z,0.80
2018-03-08T03:20:05.506Z,0.80
2018-03-08T03:22:33.103Z,0.90
2018-03-08T03:25:00.654Z,0.80
2018-03-08T03:27:28.246Z,0.90
2018-03-08T03:29:56.283Z,0.93
2018-03-08T03:32:24.639Z,0.77
2018-03-08T03:34:52.203Z,0.83
2018-03-08T03:37:19.806Z,0.90
2018-03-08T03:39:47.955Z,0.63
2018-03-08T03:42:15.717Z,0.70
2018-03-08T03:44:43.282Z,0.80
2018-03-08T03:47:11.936Z,1.83
2018-03-08T03:49:39.950Z,0.57
2018-03-08T03:52:09.026Z,0.80
2018-03-08T03:54:36.614Z,0.70
2018-03-08T03:57:04.970Z,0.43
2018-03-08T03:59:32.562Z,0.60
2018-03-08T04:02:00.174Z,0.73
2018-03-08T04:04:27.800Z,0.60
2018-03-08T04:06:55.353Z,0.60
2018-03-08T04:09:22.938Z,0.47
2018-03-08T04:11:50.506Z,0.80
2018-03-08T04:14:18.094Z,0.67
2018-03-08T04:16:45.651Z,0.80
2018-03-08T04:19:13.262Z,0.60
2018-03-08T04:21:40.838Z,0.90
2018-03-08T04:24:08.412Z,1.10
2018-03-08T04:26:36.132Z,1.20
2018-03-08T04:29:04.499Z,0.80
2018-03-08T04:31:32.063Z,0.90
2018-03-08T04:33:59.656Z,1.33
2018-03-08T04:36:28.008Z,1.10
2018-03-08T04:38:59.074Z,1.00
2018-03-08T04:41:27.396Z,1.40
2018-03-08T04:43:54.983Z,0.90
2018-03-08T04:46:22.616Z,1.13
2018-03-08T04:48:50.154Z,1.40
2018-03-08T04:51:17.753Z,1.13
2018-03-08T04:53:45.326Z,1.13
2018-03-08T04:56:12.917Z,0.83
2018-03-08T04:58:40.504Z,1.57
2018-03-08T05:01:08.104Z,1.03
2018-03-08T05:03:35.668Z,0.80
2018-03-08T05:06:03.268Z,1.00
2018-03-08T05:08:30.846Z,1.30
2018-03-08T05:10:58.434Z,1.40
2018-03-08T05:13:25.991Z,0.93
2018-03-08T05:15:53.595Z,0.90
2018-03-08T05:18:21.158Z,1.00
2018-03-08T05:20:48.747Z,0.87
2018-03-08T05:23:16.352Z,1.20
2018-03-08T05:25:43.997Z,1.00
2018-03-08T05:28:12.322Z,0.90
2018-03-08T05:30:39.910Z,0.80
2018-03-08T05:33:07.471Z,1.40
2018-03-08T05:35:35.055Z,1.03
2018-03-08T05:38:03.395Z,1.20
2018-03-08T05:40:30.993Z,1.23
2018-03-08T05:42:59.324Z,1.20
2018-03-08T05:45:26.897Z,1.20
2018-03-08T05:47:54.491Z,1.10
2018-03-08T05:50:22.060Z,1.10
2018-03-08T05:52:49.620Z,1.13
2018-03-08T05:55:17.840Z,1.20
2018-03-08T05:57:45.398Z,1.40
2018-03-08T06:00:13.007Z,1.23
2018-03-08T06:02:40.568Z,1.63
2018-03-08T06:05:08.163Z,1.50
2018-03-08T06:07:35.734Z,1.33
2018-03-08T06:10:03.390Z,1.53
2018-03-08T06:12:30.979Z,1.70
2018-03-08T06:14:58.627Z,1.20
2018-03-08T06:17:26.194Z,1.30
2018-03-08T06:19:53.779Z,1.23
2018-03-08T06:22:21.339Z,0.90
2018-03-08T06:24:48.942Z,1.13
2018-03-08T06:27:16.542Z,1.30
2018-03-08T06:29:44.103Z,1.10
2018-03-08T06:32:11.718Z,1.47
2018-03-08T06:34:39.276Z,1.13
2018-03-08T06:37:06.866Z,0.73
2018-03-08T06:39:34.472Z,0.93
2018-03-08T06:42:02.048Z,1.30
2018-03-08T06:44:29.631Z,1.20
2018-03-08T06:46:57.224Z,1.37
2018-03-08T06:49:25.559Z,1.13
2018-03-08T06:51:53.874Z,1.53
2018-03-08T06:54:21.448Z,1.20
2018-03-08T06:56:49.007Z,0.90
2018-03-08T06:59:17.374Z,1.20
2018-03-08T07:01:44.975Z,1.17
2018-03-08T07:04:12.565Z,1.10
2018-03-08T07:06:40.135Z,1.10
2018-03-08T07:09:07.727Z,1.10
2018-03-08T07:11:35.795Z,1.10
2018-03-08T07:14:03.395Z,1.33
2018-03-08T07:16:31.002Z,1.13
2018-03-08T07:18:58.595Z,1.37
2018-03-08T07:21:26.202Z,0.90
2018-03-08T07:23:54.164Z,2.40
2018-03-08T07:26:21.762Z,1.27
2018-03-08T07:28:49.348Z,1.13
2018-03-08T07:31:16.946Z,1.03
2018-03-08T07:33:44.799Z,1.17
2018-03-08T07:36:13.175Z,1.40
2018-03-08T07:38:40.762Z,1.33
2018-03-08T07:41:08.314Z,1.57
2018-03-08T07:43:37.119Z,1.63
2018-03-08T07:46:04.704Z,1.10
2018-03-08T07:48:32.298Z,1.10
2018-03-08T07:50:59.895Z,1.03
2018-03-08T07:53:27.464Z,1.27
2018-03-08T07:55:55.061Z,1.00
2018-03-08T07:58:22.698Z,1.30
2018-03-08T08:00:50.252Z,1.50
2018-03-08T08:03:17.847Z,1.27
2018-03-08T08:05:57.441Z,1.60
2018-03-08T08:08:37.598Z,1.50
2018-03-08T08:11:05.212Z,1.77
2018-03-08T08:13:32.775Z,1.40
2018-03-08T08:16:00.381Z,1.70
2018-03-08T08:18:28.712Z,1.40
2018-03-08T08:20:56.276Z,2.00
2018-03-08T08:23:23.883Z,1.17
2018-03-08T08:25:51.454Z,1.37
2018-03-08T08:28:19.039Z,0.93
2018-03-08T08:30:46.638Z,1.70
2018-03-08T08:33:14.204Z,1.53
2018-03-08T08:35:41.764Z,1.43
2018-03-08T08:38:10.173Z,1.27
2018-03-08T08:40:37.735Z,1.70
2018-03-08T08:43:05.295Z,1.40
2018-03-08T08:45:32.880Z,1.83
2018-03-08T08:48:01.234Z,1.70
2018-03-08T08:50:28.869Z,1.80
2018-03-08T08:52:56.458Z,1.13
2018-03-08T08:55:24.071Z,1.50
2018-03-08T08:57:51.639Z,1.43
2018-03-08T09:00:19.234Z,1.63
2018-03-08T09:02:46.794Z,1.60
2018-03-08T09:05:14.386Z,1.53
2018-03-08T09:07:41.950Z,1.87
2018-03-08T09:10:09.506Z,1.80
2018-03-08T09:12:37.333Z,1.23
2018-03-08T09:15:04.926Z,1.43
2018-03-08T09:17:32.535Z,1.50
2018-03-08T09:20:00.161Z,1.17
2018-03-08T09:22:27.770Z,1.47
2018-03-08T09:24:55.346Z,1.50
2018-03-08T09:27:22.943Z,1.20
2018-03-08T09:29:50.495Z,0.93
2018-03-08T09:32:18.096Z,1.10
2018-03-08T09:34:45.811Z,1.50
2018-03-08T09:37:13.375Z,1.23
2018-03-08T09:39:40.959Z,1.13
2018-03-08T09:42:08.568Z,1.20
2018-03-08T09:44:36.886Z,1.07
2018-03-08T09:47:04.514Z,1.43
2018-03-08T09:49:32.147Z,1.40
2018-03-08T09:51:59.703Z,0.93
2018-03-08T09:54:28.131Z,1.90
2018-03-08T09:56:55.927Z,1.40
2018-03-08T09:59:23.633Z,1.33
2018-03-08T10:01:51.301Z,1.43
2018-03-08T10:04:19.770Z,2.00
2018-03-08T10:06:48.163Z,1.10
2018-03-08T10:09:16.571Z,1.23
2018-03-08T10:11:44.184Z,1.30
2018-03-08T10:14:11.785Z,1.37
2018-03-08T10:16:39.384Z,1.40
2018-03-08T10:19:07.060Z,1.20
2018-03-08T10:21:48.658Z,1.23
2018-03-08T10:24:02.311Z,1.20
2018-03-08T10:26:29.872Z,1.33
2018-03-08T10:28:58.261Z,1.13
2018-03-08T10:31:25.859Z,1.40
2018-03-08T10:33:53.427Z,1.20
2018-03-08T10:36:21.036Z,1.23
2018-03-08T10:38:48.595Z,1.47
2018-03-08T10:41:16.213Z,1.33
2018-03-08T10:43:43.798Z,1.60
2018-03-08T10:46:11.363Z,1.40
2018-03-08T10:48:40.228Z,1.60
2018-03-08T10:51:08.586Z,1.40
2018-03-08T10:53:36.966Z,1.57
2018-03-08T10:56:04.575Z,1.40
2018-03-08T10:58:33.236Z,1.53
2018-03-08T11:00:59.862Z,1.47
2018-03-08T11:03:48.190Z,1.83
2018-03-08T11:06:20.660Z,1.83
2018-03-08T11:08:48.207Z,1.67
2018-03-08T11:11:15.812Z,1.20
2018-03-08T11:13:44.142Z,1.37
2018-03-08T11:16:11.759Z,1.17
2018-03-08T11:18:39.326Z,1.50
2018-03-08T11:21:07.682Z,1.30
2018-03-08T11:23:35.317Z,1.50
2018-03-08T11:26:02.983Z,1.17
2018-03-08T11:28:30.540Z,0.73
2018-03-08T11:30:58.223Z,1.17
2018-03-08T11:33:25.841Z,1.63
2018-03-08T11:35:53.439Z,1.50
2018-03-08T11:38:21.299Z,1.07
2018-03-08T11:40:48.919Z,1.37
2018-03-08T11:43:17.293Z,1.07
2018-03-08T11:45:44.895Z,1.53
2018-03-08T11:48:12.461Z,1.30
2018-03-08T11:50:40.048Z,1.50
2018-03-08T11:53:09.375Z,1.13
2018-03-08T11:55:35.264Z,1.17
2018-03-08T11:58:02.950Z,1.37
2018-03-08T12:00:30.515Z,1.50
2018-03-08T12:02:58.169Z,1.13
2018-03-08T12:05:25.913Z,1.03
2018-03-08T12:07:53.543Z,1.10
2018-03-08T12:10:21.890Z,1.20
2018-03-08T12:12:49.495Z,1.30
2018-03-08T12:15:17.847Z,1.03
2018-03-08T12:17:45.435Z,1.53
2018-03-08T12:20:13.066Z,1.40
2018-03-08T12:22:40.700Z,1.67
2018-03-08T12:25:08.276Z,0.83
2018-03-08T12:27:35.871Z,1.17
2018-03-08T12:30:03.491Z,1.00
2018-03-08T12:32:31.107Z,1.77
2018-03-08T12:34:59.533Z,1.67
2018-03-08T12:37:27.130Z,1.10
2018-03-08T12:39:54.725Z,0.90
2018-03-08T12:42:22.310Z,1.10
2018-03-08T12:44:49.887Z,0.73
2018-03-08T12:47:17.507Z,1.10
2018-03-08T12:49:45.850Z,1.30
2018-03-08T12:52:13.430Z,1.00
2018-03-08T12:54:41.023Z,1.20
2018-03-08T12:57:08.580Z,1.10
2018-03-08T12:59:36.942Z,1.17
2018-03-08T13:02:04.596Z,1.13
2018-03-08T13:04:32.200Z,1.10
2018-03-08T13:06:59.808Z,1.20
2018-03-08T13:09:27.367Z,0.73
2018-03-08T13:11:54.967Z,0.90
2018-03-08T13:14:23.314Z,1.20
2018-03-08T13:16:50.916Z,1.23
2018-03-08T13:19:19.275Z,2.13
2018-03-08T13:21:46.886Z,1.00
2018-03-08T13:24:14.448Z,1.13
2018-03-08T13:26:42.055Z,1.00
2018-03-08T13:29:09.648Z,1.13
2018-03-08T13:31:38.083Z,1.07
2018-03-08T13:34:05.666Z,1.17
2018-03-08T13:36:33.259Z,1.03
2018-03-08T13:39:00.821Z,0.87
2018-03-08T13:41:29.175Z,1.17
2018-03-08T13:43:56.775Z,1.20
2018-03-08T13:46:25.107Z,1.00
2018-03-08T13:48:53.000Z,1.17
2018-03-08T13:51:20.603Z,1.63
2018-03-08T13:53:48.171Z,1.53
2018-03-08T13:56:15.800Z,0.87
2018-03-08T13:58:44.160Z,0.80
2018-03-08T14:01:11.748Z,1.27
2018-03-08T14:03:39.311Z,0.70
2018-03-08T14:06:09.681Z,1.17
2018-03-08T14:08:37.275Z,1.10
2018-03-08T14:11:04.831Z,1.40
2018-03-08T14:13:32.413Z,0.60
2018-03-08T14:16:00.056Z,1.00
2018-03-08T14:18:27.652Z,0.93
2018-03-08T14:20:56.027Z,1.33
2018-03-08T14:23:23.589Z,1.27
2018-03-08T14:25:51.957Z,1.03
2018-03-08T14:28:19.522Z,0.83
2018-03-08T14:30:47.118Z,1.30
2018-03-08T14:33:14.679Z,1.00
2018-03-08T14:35:42.280Z,1.00
2018-03-08T14:38:09.859Z,1.07
2018-03-08T14:40:37.519Z,1.20
2018-03-08T14:43:05.095Z,1.23
2018-03-08T14:45:32.684Z,1.10
2018-03-08T14:48:01.038Z,0.90
2018-03-08T14:50:28.631Z,1.17
2018-03-08T14:52:56.984Z,1.17
2018-03-08T14:55:25.319Z,1.00
2018-03-08T14:57:52.967Z,1.00
2018-03-08T15:00:20.542Z,0.70
2018-03-08T15:02:48.134Z,0.83
2018-03-08T15:05:15.719Z,0.80
2018-03-08T15:07:43.331Z,1.10
2018-03-08T15:10:10.925Z,1.03
2018-03-08T15:12:38.529Z,0.97
2018-03-08T15:15:06.124Z,0.70
2018-03-08T15:17:33.735Z,0.93
2018-03-08T15:20:02.127Z,0.97
2018-03-08T15:22:30.462Z,1.00
2018-03-08T15:24:58.055Z,1.20
2018-03-08T15:27:25.847Z,0.63
2018-03-08T15:29:53.431Z,0.90
2018-03-08T15:32:20.991Z,1.23
2018-03-08T15:34:48.615Z,1.27
2018-03-08T15:37:16.969Z,1.00
2018-03-08T15:39:44.566Z,1.37
2018-03-08T15:42:12.127Z,1.20
2018-03-08T15:44:40.509Z,1.03
2018-03-08T15:47:08.130Z,1.50
2018-03-08T15:49:35.736Z,1.17
2018-03-08T15:52:03.352Z,1.10
2018-03-08T15:54:30.951Z,1.40
2018-03-08T15:57:00.793Z,0.83
2018-03-08T15:59:29.149Z,1.20
2018-03-08T16:01:56.757Z,1.80
2018-03-08T16:04:24.554Z,1.17
2018-03-08T16:10:18.339Z,1.67
2018-03-08T16:12:45.950Z,1.50
2018-03-08T16:15:13.565Z,1.87
2018-03-08T16:17:41.227Z,1.53
2018-03-08T16:20:08.809Z,1.40
2018-03-08T16:22:36.418Z,1.77
2018-03-08T16:25:04.751Z,2.27
2018-03-08T16:27:32.420Z,1.67
2018-03-08T16:30:00.030Z,1.67
2018-03-08T16:32:28.402Z,1.40
2018-03-08T16:34:56.434Z,1.50
2018-03-08T16:37:24.169Z,1.73
2018-03-08T16:39:51.740Z,1.60
2018-03-08T16:42:19.353Z,2.03
2018-03-08T16:44:47.784Z,1.23
2018-03-08T16:47:15.368Z,1.33
2018-03-08T16:49:42.990Z,1.40
2018-03-08T16:52:10.559Z,1.77
2018-03-08T16:54:38.893Z,1.63
2018-03-08T16:57:06.906Z,1.43
2018-03-08T16:59:35.246Z,1.47
2018-03-08T17:02:02.821Z,1.40
2018-03-08T17:04:30.430Z,1.53
2018-03-08T17:06:58.050Z,1.20
2018-03-08T17:09:25.678Z,1.80
2018-03-08T17:11:54.090Z,1.80
2018-03-08T17:14:21.742Z,1.60
2018-03-08T17:16:49.323Z,2.07
2018-03-08T17:19:18.418Z,1.10
2018-03-08T17:21:46.073Z,1.50
2018-03-08T17:24:13.676Z,1.03
2018-03-08T17:26:41.330Z,1.20
2018-03-08T17:29:09.943Z,1.67
2018-03-08T17:31:37.583Z,1.27
2018-03-08T17:34:05.368Z,1.17
2018-03-08T17:36:33.731Z,1.10
2018-03-08T17:39:01.335Z,0.97
2018-03-08T17:41:28.946Z,2.00
2018-03-08T17:43:56.590Z,1.23
2018-03-08T17:46:24.150Z,1.13
2018-03-08T17:48:51.762Z,1.17
2018-03-08T17:51:19.364Z,1.40
2018-03-08T17:53:46.975Z,1.40
2018-03-08T17:56:15.356Z,1.00
2018-03-08T17:58:42.942Z,1.17
2018-03-08T18:01:11.284Z,1.67
2018-03-08T18:03:38.910Z,1.50
2018-03-08T18:06:06.517Z,1.80
2018-03-08T18:08:34.105Z,1.23
2018-03-08T18:11:01.755Z,1.50
2018-03-08T18:13:29.466Z,1.60
2018-03-08T18:15:57.074Z,1.30
2018-03-08T18:18:24.650Z,1.50
2018-03-08T18:20:52.275Z,1.40
2018-03-08T18:23:19.845Z,1.53
2018-03-08T18:25:47.442Z,2.20
2018-03-08T18:28:15.046Z,2.03
2018-03-08T18:30:42.700Z,1.83
2018-03-08T18:33:10.282Z,1.80
2018-03-08T18:35:37.880Z,1.80
2018-03-08T18:38:07.673Z,1.73
2018-03-08T18:40:35.274Z,1.50
2018-03-08T18:43:02.884Z,1.77
2018-03-08T18:45:30.516Z,2.07
2018-03-08T18:47:58.775Z,1.73
2018-03-08T18:50:26.502Z,1.57
2018-03-08T18:52:54.093Z,2.30
2018-03-08T18:55:21.731Z,2.07
2018-03-08T18:57:49.373Z,1.90
2018-03-08T19:00:16.957Z,1.80
2018-03-08T19:02:44.563Z,2.00
2018-03-08T19:05:12.198Z,1.63
2018-03-08T19:07:40.401Z,2.00
2018-03-08T19:10:08.810Z,2.03
2018-03-08T19:12:36.423Z,1.90
2018-03-08T19:15:05.651Z,2.63
2018-03-08T19:17:34.016Z,2.00
2018-03-08T19:20:02.395Z,1.87
2018-03-08T19:22:31.484Z,2.40
2018-03-08T19:25:00.600Z,1.70
2018-03-08T19:27:28.251Z,2.27
2018-03-08T19:29:55.867Z,2.00
2018-03-08T19:32:23.655Z,2.00
2018-03-08T19:34:51.261Z,1.70
2018-03-08T19:37:19.624Z,3.37
2018-03-08T19:39:47.218Z,1.63
2018-03-08T19:42:15.593Z,2.40
2018-03-08T19:44:44.006Z,2.40
2018-03-08T19:47:12.136Z,2.50
2018-03-08T19:49:39.708Z,3.00
2018-03-08T19:52:09.000Z,2.97
2018-03-08T19:54:36.693Z,2.50
2018-03-08T19:57:04.307Z,2.23
2018-03-08T19:59:31.894Z,1.93
2018-03-08T20:01:59.510Z,2.00
2018-03-08T20:04:27.071Z,1.87
2018-03-08T20:06:54.680Z,2.33
2018-03-08T20:09:23.074Z,2.20
2018-03-08T20:11:51.472Z,2.67
2018-03-08T20:14:19.141Z,3.17
2018-03-08T20:16:46.774Z,2.07
2018-03-08T20:19:15.119Z,2.20
2018-03-08T20:21:42.744Z,2.50
2018-03-08T20:24:10.358Z,3.70
2018-03-08T20:26:37.974Z,2.37
2018-03-08T20:29:06.362Z,2.37
2018-03-08T20:31:33.930Z,2.50
2018-03-08T20:34:02.353Z,2.00
2018-03-08T20:36:30.160Z,3.37
2018-03-08T20:38:57.742Z,2.57
2018-03-08T20:41:25.379Z,2.63
2018-03-08T20:43:53.019Z,3.87
2018-03-08T20:46:20.608Z,2.83
2018-03-08T20:48:48.171Z,2.57
2018-03-08T20:51:15.813Z,2.77
2018-03-08T20:53:43.379Z,2.33
2018-03-08T20:56:11.002Z,2.10
2018-03-08T20:58:38.579Z,2.00
2018-03-08T21:01:06.230Z,2.40
2018-03-08T21:03:33.814Z,2.30
2018-03-08T21:06:01.412Z,1.90
2018-03-08T21:08:29.088Z,2.23
2018-03-08T21:10:56.710Z,2.60
2018-03-08T21:13:24.298Z,2.73
2018-03-08T21:15:51.878Z,1.90
2018-03-08T21:18:19.468Z,1.70
2018-03-08T21:20:47.061Z,1.67
2018-03-08T21:23:14.718Z,1.90
2018-03-08T21:25:42.368Z,1.87
2018-03-08T21:28:09.930Z,2.20
2018-03-08T21:30:37.500Z,1.90
2018-03-08T21:33:05.423Z,2.63
2018-03-08T21:35:35.459Z,2.30
2018-03-08T21:38:03.150Z,2.30
2018-03-08T21:40:30.716Z,1.87
2018-03-08T21:42:58.323Z,2.00
2018-03-08T21:45:27.242Z,2.03
2018-03-08T21:47:55.031Z,2.10
2018-03-08T21:50:22.730Z,2.27
2018-03-08T21:52:50.566Z,2.57
2018-03-08T21:55:18.174Z,2.10
2018-03-08T21:57:46.547Z,2.00
2018-03-08T22:00:14.516Z,2.27
2018-03-08T22:02:42.092Z,2.53
2018-03-08T22:05:09.657Z,2.70
2018-03-08T22:07:37.774Z,2.17
2018-03-08T22:10:05.899Z,2.87
2018-03-08T22:12:33.523Z,2.37
2018-03-08T22:15:01.098Z,2.30
2018-03-08T22:17:29.055Z,1.90
2018-03-08T22:19:56.626Z,2.83
2018-03-08T22:22:24.206Z,2.67
2018-03-08T22:24:51.826Z,2.80
2018-03-08T22:27:19.410Z,2.73
2018-03-08T22:29:47.217Z,2.10
2018-03-08T22:32:14.817Z,1.77
2018-03-08T22:34:42.388Z,2.60
2018-03-08T22:37:10.038Z,2.23
2018-03-08T22:39:37.679Z,2.23
2018-03-08T22:42:05.967Z,1.97
2018-03-08T22:44:33.558Z,2.33
2018-03-08T22:47:01.150Z,2.33
2018-03-08T22:49:28.747Z,2.60
2018-03-08T22:51:56.367Z,1.87
2018-03-08T22:54:23.956Z,2.10
2018-03-08T22:56:51.692Z,2.17
2018-03-08T22:59:19.283Z,2.37
2018-03-08T23:02:17.310Z,1.90
2018-03-08T23:04:45.381Z,1.97
2018-03-08T23:07:13.177Z,1.87
2018-03-08T23:09:42.024Z,1.77
2018-03-08T23:12:10.223Z,3.00
2018-03-08T23:14:37.906Z,1.80
2018-03-08T23:17:05.482Z,2.30
2018-03-08T23:19:33.055Z,2.20
2018-03-08T23:22:00.668Z,1.93
2018-03-08T23:24:28.260Z,2.10
2018-03-08T23:26:56.236Z,2.37
2018-03-08T23:29:23.802Z,2.47
2018-03-08T23:31:51.492Z,1.70
2018-03-08T23:34:20.527Z,1.87
2018-03-08T23:36:48.673Z,2.93
2018-03-08T23:39:16.239Z,2.17
2018-03-08T23:41:43.900Z,2.40
2018-03-08T23:44:13.027Z,2.17
2018-03-08T23:46:41.821Z,2.00
2018-03-08T23:49:09.466Z,1.60
2018-03-08T23:51:37.839Z,2.17
2018-03-08T23:54:05.544Z,2.47
2018-03-08T23:56:33.351Z,2.07
2018-03-08T23:59:00.958Z,2.10
